createdAt,value
2022-12-19T00:01:32.166Z,4.23
2022-12-19T00:04:00.769Z,3.87
2022-12-19T00:06:28.514Z,3.83
2022-12-19T00:08:56.136Z,3.83
2022-12-19T00:11:23.378Z,3.80
2022-12-19T00:13:50.061Z,3.77
2022-12-19T00:16:18.843Z,3.57
2022-12-19T00:18:46.045Z,3.63
2022-12-19T00:21:14.078Z,4.10
2022-12-19T00:23:40.728Z,3.53
2022-12-19T00:26:27.197Z,3.70
2022-12-19T00:28:55.263Z,3.80
2022-12-19T00:31:23.774Z,3.57
2022-12-19T00:33:50.661Z,4.20
2022-12-19T00:36:21.800Z,4.00
2022-12-19T00:38:49.828Z,4.00
2022-12-19T00:41:21.214Z,4.00
2022-12-19T00:43:47.848Z,3.97
2022-12-19T00:46:15.142Z,4.20
2022-12-19T00:48:42.464Z,4.47
2022-12-19T00:51:11.946Z,3.70
2022-12-19T00:53:38.548Z,3.70
2022-12-19T00:56:06.952Z,3.70
2022-12-19T00:58:35.648Z,3.83
2022-12-19T01:01:22.154Z,4.00
2022-12-19T01:04:26.062Z,3.50
2022-12-19T01:06:35.654Z,3.70
2022-12-19T01:09:02.401Z,3.60
2022-12-19T01:11:47.723Z,3.93
2022-12-19T01:14:20.831Z,3.80
2022-12-19T01:16:49.261Z,3.70
2022-12-19T01:19:15.894Z,3.80
2022-12-19T01:21:42.531Z,4.00
2022-12-19T01:24:09.670Z,3.77
2022-12-19T01:26:36.278Z,3.63
2022-12-19T01:29:02.880Z,3.80
2022-12-19T01:31:29.481Z,3.60
2022-12-19T01:33:56.090Z,3.70
2022-12-19T01:36:22.672Z,3.70
2022-12-19T01:38:49.255Z,4.03
2022-12-19T01:41:15.841Z,3.53
2022-12-19T01:44:02.155Z,3.30
2022-12-19T01:46:30.747Z,4.03
2022-12-19T01:48:57.396Z,3.80
2022-12-19T01:51:25.174Z,3.70
2022-12-19T01:53:57.901Z,3.40
2022-12-19T01:56:28.647Z,3.77
2022-12-19T01:59:05.914Z,3.53
2022-12-19T02:01:32.948Z,3.60
2022-12-19T02:03:59.646Z,3.57
2022-12-19T02:06:26.273Z,3.40
2022-12-19T02:08:53.884Z,3.30
2022-12-19T02:11:20.478Z,3.40
2022-12-19T02:13:47.144Z,3.70
2022-12-19T02:16:20.046Z,3.87
2022-12-19T02:19:18.187Z,3.10
2022-12-19T02:22:06.991Z,3.27
2022-12-19T02:25:11.098Z,3.57
2022-12-19T02:28:02.090Z,3.23
2022-12-19T02:30:45.472Z,3.60
2022-12-19T02:33:30.198Z,3.60
2022-12-19T02:36:02.093Z,3.23
2022-12-19T02:38:41.923Z,3.40
2022-12-19T02:41:17.784Z,3.13
2022-12-19T02:43:47.166Z,3.23
2022-12-19T02:46:16.570Z,3.37
2022-12-19T02:48:43.184Z,3.50
2022-12-19T02:51:09.817Z,3.50
2022-12-19T02:53:36.501Z,3.63
2022-12-19T02:56:17.962Z,3.67
2022-12-19T02:59:11.373Z,3.20
2022-12-19T03:01:38.161Z,2.73
2022-12-19T03:04:14.837Z,3.17
2022-12-19T03:07:31.304Z,3.23
2022-12-19T03:10:32.412Z,3.40
2022-12-19T03:13:07.688Z,3.30
2022-12-19T03:15:34.861Z,3.50
2022-12-19T03:18:01.531Z,3.00
2022-12-19T03:20:52.810Z,3.30
2022-12-19T03:23:19.468Z,4.13
2022-12-19T03:25:48.753Z,3.53
2022-12-19T03:28:21.527Z,3.37
2022-12-19T03:30:48.134Z,3.47
2022-12-19T03:33:14.758Z,3.00
2022-12-19T03:35:41.382Z,3.27
2022-12-19T03:38:07.976Z,2.90
2022-12-19T03:40:36.176Z,3.50
2022-12-19T03:43:10.425Z,3.17
2022-12-19T03:45:55.185Z,3.20
2022-12-19T03:48:32.980Z,2.80
2022-12-19T03:51:11.045Z,3.30
2022-12-19T03:53:51.281Z,3.33
2022-12-19T03:56:27.218Z,3.20
2022-12-19T03:59:02.105Z,3.43
2022-12-19T04:01:28.794Z,3.00
2022-12-19T04:03:55.857Z,3.20
2022-12-19T04:06:22.508Z,3.40
2022-12-19T04:08:49.440Z,3.37
2022-12-19T04:11:18.718Z,3.53
2022-12-19T04:13:49.887Z,3.17
2022-12-19T04:16:21.763Z,3.53
2022-12-19T04:18:52.010Z,2.80
2022-12-19T04:21:22.721Z,3.27
2022-12-19T04:23:52.871Z,2.97
2022-12-19T04:26:19.548Z,3.30
2022-12-19T04:28:48.901Z,3.53
2022-12-19T04:31:15.820Z,3.20
2022-12-19T04:33:42.482Z,3.00
2022-12-19T04:36:10.159Z,2.97
2022-12-19T04:38:36.739Z,3.40
2022-12-19T04:41:03.344Z,3.00
2022-12-19T04:43:29.921Z,2.87
2022-12-19T04:45:57.701Z,2.83
2022-12-19T04:48:24.902Z,3.23
2022-12-19T04:50:51.533Z,3.20
2022-12-19T04:53:18.205Z,2.90
2022-12-19T04:55:44.812Z,2.93
2022-12-19T04:58:11.737Z,2.77
2022-12-19T05:00:38.509Z,2.97
2022-12-19T05:03:05.235Z,3.00
2022-12-19T05:05:31.933Z,3.00
2022-12-19T05:07:58.522Z,2.97
2022-12-19T05:10:25.206Z,3.10
2022-12-19T05:12:53.397Z,3.00
2022-12-19T05:15:19.991Z,2.93
2022-12-19T05:17:46.593Z,3.30
2022-12-19T05:20:13.195Z,2.80
2022-12-19T05:22:39.820Z,2.73
2022-12-19T05:25:06.925Z,3.00
2022-12-19T05:27:33.530Z,2.77
2022-12-19T05:30:01.214Z,3.40
2022-12-19T05:32:31.786Z,3.23
2022-12-19T05:34:58.387Z,2.67
2022-12-19T05:37:24.991Z,2.80
2022-12-19T05:39:51.612Z,3.00
2022-12-19T05:42:18.212Z,2.83
2022-12-19T05:44:44.813Z,2.90
2022-12-19T05:47:11.422Z,2.80
2022-12-19T05:49:41.010Z,2.97
2022-12-19T05:52:07.610Z,2.90
2022-12-19T05:54:34.477Z,3.20
2022-12-19T05:57:01.517Z,3.10
2022-12-19T05:59:28.176Z,2.80
2022-12-19T06:01:54.998Z,2.83
2022-12-19T06:04:21.957Z,2.73
2022-12-19T06:06:48.576Z,2.97
2022-12-19T06:09:15.250Z,3.07
2022-12-19T06:11:41.847Z,2.80
2022-12-19T06:14:08.493Z,2.90
2022-12-19T06:16:35.119Z,3.17
2022-12-19T06:19:01.786Z,2.60
2022-12-19T06:21:28.376Z,2.90
2022-12-19T06:23:54.990Z,2.90
2022-12-19T06:26:22.457Z,3.13
2022-12-19T06:28:49.722Z,2.87
2022-12-19T06:31:16.477Z,2.97
2022-12-19T06:33:43.131Z,2.70
2022-12-19T06:36:24.502Z,2.90
2022-12-19T06:38:51.298Z,2.77
2022-12-19T06:41:36.493Z,3.00
2022-12-19T06:44:05.011Z,3.10
2022-12-19T06:46:31.707Z,2.87
2022-12-19T06:48:58.401Z,2.73
2022-12-19T06:51:25.032Z,2.80
2022-12-19T06:53:51.726Z,2.70
2022-12-19T06:56:18.669Z,3.00
2022-12-19T06:58:45.266Z,2.87
2022-12-19T07:01:22.066Z,2.70
2022-12-19T07:03:48.814Z,2.90
2022-12-19T07:06:15.469Z,3.13
2022-12-19T07:08:42.226Z,2.83
2022-12-19T07:11:08.822Z,2.80
2022-12-19T07:13:35.416Z,2.90
2022-12-19T07:16:03.300Z,2.73
2022-12-19T07:18:31.005Z,2.87
2022-12-19T07:20:57.593Z,3.00
2022-12-19T07:23:24.189Z,2.70
2022-12-19T07:25:50.767Z,2.77
2022-12-19T07:28:17.384Z,2.90
2022-12-19T07:30:44.003Z,2.80
2022-12-19T07:33:18.293Z,2.47
2022-12-19T07:35:47.760Z,2.60
2022-12-19T07:38:14.361Z,3.03
2022-12-19T07:40:40.944Z,2.77
2022-12-19T07:43:07.543Z,2.87
2022-12-19T07:45:36.296Z,2.70
2022-12-19T07:48:03.219Z,3.40
2022-12-19T07:50:29.874Z,2.73
2022-12-19T07:52:57.591Z,3.23
2022-12-19T07:55:24.496Z,3.00
2022-12-19T07:57:51.088Z,3.10
2022-12-19T08:00:17.986Z,3.13
2022-12-19T08:02:44.710Z,3.00
2022-12-19T08:05:12.259Z,2.93
2022-12-19T08:07:38.859Z,2.93
2022-12-19T08:10:06.889Z,3.30
2022-12-19T08:12:33.794Z,3.30
2022-12-19T08:15:00.461Z,4.07
2022-12-19T08:17:27.137Z,8.80
2022-12-19T08:19:53.791Z,8.73
2022-12-19T08:22:20.396Z,8.00
2022-12-19T08:24:46.993Z,7.70
2022-12-19T08:27:13.589Z,6.60
2022-12-19T08:29:40.174Z,6.00
2022-12-19T08:32:06.782Z,5.53
2022-12-19T08:34:33.405Z,4.93
2022-12-19T08:37:00.000Z,5.00
2022-12-19T08:39:26.624Z,5.00
2022-12-19T08:41:53.237Z,4.77
2022-12-19T08:44:19.887Z,4.60
2022-12-19T08:46:50.049Z,4.00
2022-12-19T08:49:17.168Z,3.87
2022-12-19T08:51:43.768Z,3.67
2022-12-19T08:54:11.875Z,3.83
2022-12-19T08:56:41.411Z,3.63
2022-12-19T08:59:13.703Z,3.67
2022-12-19T09:01:42.653Z,4.10
2022-12-19T09:05:41.420Z,3.90
2022-12-19T09:06:56.437Z,3.77
2022-12-19T09:09:23.032Z,3.90
2022-12-19T09:11:49.632Z,4.00
2022-12-19T09:14:21.005Z,4.27
2022-12-19T09:16:48.327Z,3.83
2022-12-19T09:19:16.360Z,3.93
2022-12-19T09:21:43.299Z,3.90
2022-12-19T09:24:10.306Z,4.33
2022-12-19T09:26:38.666Z,4.60
2022-12-19T09:29:12.186Z,4.20
2022-12-19T09:31:47.757Z,4.60
2022-12-19T09:34:17.226Z,3.93
2022-12-19T09:36:43.838Z,4.20
2022-12-19T09:39:10.685Z,4.13
2022-12-19T09:41:56.961Z,3.67
2022-12-19T09:44:32.613Z,4.00
2022-12-19T09:46:59.775Z,4.00
2022-12-19T09:49:36.206Z,3.73
2022-12-19T09:52:20.497Z,4.47
2022-12-19T09:54:54.977Z,3.90
2022-12-19T09:57:32.610Z,3.70
2022-12-19T10:00:19.480Z,3.73
2022-12-19T10:03:05.701Z,3.60
2022-12-19T10:06:52.611Z,3.77
2022-12-19T10:08:38.042Z,3.80
2022-12-19T10:12:45.864Z,3.90
2022-12-19T10:14:43.794Z,3.17
2022-12-19T10:17:48.851Z,3.17
2022-12-19T10:20:26.267Z,3.70
2022-12-19T10:22:59.020Z,4.10
2022-12-19T10:25:40.689Z,3.50
2022-12-19T10:28:40.840Z,3.33
2022-12-19T10:31:22.108Z,3.20
2022-12-19T10:33:58.353Z,3.60
2022-12-19T10:36:48.628Z,3.73
2022-12-19T10:39:41.256Z,3.33
2022-12-19T10:42:41.309Z,3.27
2022-12-19T10:45:21.082Z,3.83
2022-12-19T10:47:51.892Z,3.50
2022-12-19T10:50:21.783Z,3.53
2022-12-19T10:52:48.454Z,3.70
2022-12-19T10:55:43.886Z,2.97
2022-12-19T10:58:22.748Z,3.53
2022-12-19T11:01:27.381Z,3.90
2022-12-19T11:04:13.325Z,3.70
2022-12-19T11:06:46.499Z,3.60
2022-12-19T11:09:27.881Z,3.70
2022-12-19T11:15:46.604Z,3.67
2022-12-19T11:21:09.147Z,3.43
2022-12-19T11:24:08.169Z,3.47
2022-12-19T11:29:39.512Z,4.17
2022-12-19T11:29:41.631Z,4.17
2022-12-19T11:29:47.131Z,3.83
2022-12-19T11:32:42.158Z,4.37
2022-12-19T11:35:16.475Z,3.33
2022-12-19T11:38:00.432Z,3.60
2022-12-19T11:40:36.578Z,3.50
2022-12-19T11:43:42.671Z,3.97
2022-12-19T11:46:19.435Z,4.00
2022-12-19T11:48:55.754Z,4.03
2022-12-19T11:51:28.547Z,8.40
2022-12-19T11:54:16.534Z,6.63
2022-12-19T11:56:43.161Z,5.70
2022-12-19T11:59:30.871Z,6.80
2022-12-19T12:02:18.763Z,6.10
2022-12-19T12:05:05.241Z,6.33
2022-12-19T12:08:22.539Z,6.70
2022-12-19T12:15:33.686Z,6.27
2022-12-19T12:20:19.907Z,6.57
2022-12-19T12:31:08.392Z,7.10
2022-12-19T12:31:11.744Z,6.57
2022-12-19T12:31:43.542Z,6.37
2022-12-19T12:31:46.809Z,6.53
2022-12-19T12:31:52.922Z,5.40
2022-12-19T12:35:55.106Z,5.33
2022-12-19T12:37:03.556Z,5.60
2022-12-19T12:38:28.203Z,5.10
2022-12-19T12:41:04.760Z,5.23
2022-12-19T12:43:47.226Z,5.30
2022-12-19T12:46:26.118Z,5.43
2022-12-19T12:49:06.015Z,4.90
2022-12-19T12:51:33.214Z,5.07
2022-12-19T12:54:07.577Z,5.37
2022-12-19T12:56:35.364Z,5.27
2022-12-19T12:59:01.921Z,6.57
2022-12-19T13:01:28.575Z,5.20
2022-12-19T13:04:20.244Z,5.47
2022-12-19T13:06:50.043Z,5.57
2022-12-19T13:09:16.568Z,4.90
2022-12-19T13:12:08.977Z,4.80
2022-12-19T13:14:35.694Z,5.10
2022-12-19T13:17:06.394Z,4.77
2022-12-19T13:19:34.165Z,4.90
2022-12-19T13:22:09.681Z,4.80
2022-12-19T13:24:40.022Z,5.10
2022-12-19T13:27:18.808Z,4.40
2022-12-19T13:29:59.630Z,4.73
2022-12-19T13:32:46.911Z,5.00
2022-12-19T13:36:15.513Z,5.13
2022-12-19T13:40:00.346Z,4.60
2022-12-19T13:41:45.834Z,4.10
2022-12-19T13:44:12.487Z,4.33
2022-12-19T13:46:45.040Z,5.33
2022-12-19T13:49:19.060Z,4.77
2022-12-19T13:51:47.722Z,4.90
2022-12-19T13:54:22.846Z,4.27
2022-12-19T13:56:50.805Z,4.50
2022-12-19T13:59:17.409Z,4.87
2022-12-19T14:01:44.081Z,3.90
2022-12-19T14:04:23.236Z,4.80
2022-12-19T14:06:49.829Z,4.87
2022-12-19T14:11:30.577Z,4.27
2022-12-19T14:13:42.742Z,4.33
2022-12-19T14:15:45.104Z,4.13
2022-12-19T14:18:45.107Z,4.13
2022-12-19T14:22:11.900Z,3.53
2022-12-19T14:24:15.167Z,4.00
2022-12-19T14:28:24.278Z,3.90
2022-12-19T14:30:14.847Z,4.00
2022-12-19T14:33:40.605Z,3.80
2022-12-19T14:36:06.039Z,4.07
2022-12-19T14:39:25.535Z,3.87
2022-12-19T14:41:07.929Z,3.77
2022-12-19T14:44:00.162Z,4.07
2022-12-19T14:53:34.116Z,4.20
2022-12-19T14:54:05.135Z,4.07
2022-12-19T14:54:29.541Z,4.07
2022-12-19T14:56:11.540Z,4.53
2022-12-19T14:58:55.312Z,3.67
2022-12-19T15:01:25.501Z,3.90
2022-12-19T15:04:49.466Z,3.67
2022-12-19T15:07:09.859Z,3.57
2022-12-19T15:10:58.740Z,3.47
2022-12-19T15:14:51.496Z,4.20
2022-12-19T15:16:00.593Z,3.87
2022-12-19T15:18:33.567Z,3.90
2022-12-19T15:21:05.239Z,3.60
2022-12-19T15:23:31.952Z,3.33
2022-12-19T15:26:04.408Z,3.33
2022-12-19T15:28:38.971Z,3.80
2022-12-19T15:31:11.583Z,3.73
2022-12-19T15:33:44.149Z,3.60
2022-12-19T15:36:24.783Z,3.67
2022-12-19T15:38:51.377Z,3.17
2022-12-19T15:41:21.906Z,3.27
2022-12-19T15:44:05.420Z,3.33
2022-12-19T15:46:32.541Z,3.43
2022-12-19T15:48:59.263Z,3.50
2022-12-19T15:51:25.885Z,3.70
2022-12-19T15:53:52.483Z,3.10
2022-12-19T15:56:29.345Z,3.13
2022-12-19T15:58:56.656Z,3.10
2022-12-19T16:01:23.390Z,3.33
2022-12-19T16:03:50.433Z,3.23
2022-12-19T16:06:17.231Z,3.53
2022-12-19T16:08:43.886Z,3.63
2022-12-19T16:11:21.087Z,3.67
2022-12-19T16:13:51.597Z,3.37
2022-12-19T16:16:18.247Z,3.60
2022-12-19T16:18:45.325Z,3.93
2022-12-19T16:21:22.584Z,2.97
2022-12-19T16:23:51.717Z,3.43
2022-12-19T16:26:32.749Z,3.17
2022-12-19T16:28:59.427Z,3.70
2022-12-19T16:31:26.459Z,3.20
2022-12-19T16:33:53.252Z,3.60
2022-12-19T16:36:20.178Z,3.10
2022-12-19T16:38:46.915Z,2.97
2022-12-19T16:41:19.473Z,3.00
2022-12-19T16:43:46.363Z,3.57
2022-12-19T16:46:18.524Z,3.23
2022-12-19T16:48:45.195Z,3.17
2022-12-19T16:51:17.749Z,3.10
2022-12-19T16:53:44.358Z,3.10
2022-12-19T16:56:30.328Z,3.43
2022-12-19T16:58:57.203Z,3.30
2022-12-19T17:01:24.066Z,3.43
2022-12-19T17:03:50.727Z,3.77
2022-12-19T17:06:18.780Z,3.10
2022-12-19T17:08:45.402Z,3.33
2022-12-19T17:11:14.710Z,3.40
2022-12-19T17:13:41.651Z,3.37
2022-12-19T17:16:08.405Z,3.10
2022-12-19T17:18:35.911Z,3.57
2022-12-19T17:21:02.507Z,3.57
2022-12-19T17:23:30.024Z,3.43
2022-12-19T17:25:56.670Z,3.40
2022-12-19T17:28:23.282Z,3.43
2022-12-19T17:31:00.395Z,3.10
2022-12-19T17:33:32.978Z,3.50
2022-12-19T17:36:02.931Z,3.37
2022-12-19T17:38:29.560Z,3.00
2022-12-19T17:40:56.271Z,3.23
2022-12-19T17:43:22.901Z,3.83
2022-12-19T17:45:50.325Z,3.00
2022-12-19T17:48:27.744Z,3.57
2022-12-19T17:50:54.610Z,3.67
2022-12-19T17:53:21.314Z,2.87
2022-12-19T17:55:47.934Z,3.20
2022-12-19T17:58:14.641Z,3.07
2022-12-19T18:00:41.543Z,2.87
2022-12-19T18:03:26.478Z,3.63
2022-12-19T18:05:54.205Z,3.27
2022-12-19T18:08:27.685Z,3.53
2022-12-19T18:10:56.432Z,3.60
2022-12-19T18:13:23.886Z,3.30
2022-12-19T18:15:50.526Z,3.37
2022-12-19T18:18:20.183Z,2.60
2022-12-19T18:20:46.782Z,3.10
2022-12-19T18:23:18.416Z,2.70
2022-12-19T18:25:45.349Z,2.97
2022-12-19T18:28:12.151Z,3.10
2022-12-19T18:30:38.802Z,2.73
2022-12-19T18:33:05.751Z,3.30
2022-12-19T18:35:34.931Z,3.30
2022-12-19T18:38:02.509Z,2.80
2022-12-19T18:40:31.633Z,3.07
2022-12-19T18:42:58.998Z,2.90
2022-12-19T18:45:28.692Z,3.40
2022-12-19T18:47:57.413Z,3.20
2022-12-19T18:50:25.114Z,2.93
2022-12-19T18:52:52.846Z,2.73
2022-12-19T18:55:24.447Z,2.70
2022-12-19T18:57:51.196Z,3.10
2022-12-19T19:00:22.171Z,3.07
2022-12-19T19:03:14.247Z,2.90
2022-12-19T19:05:41.101Z,3.20
2022-12-19T19:08:18.883Z,2.90
2022-12-19T19:10:46.521Z,3.00
2022-12-19T19:13:14.084Z,3.07
2022-12-19T19:15:45.468Z,2.40
2022-12-19T19:18:12.092Z,2.80
2022-12-19T19:20:39.696Z,2.63
2022-12-19T19:23:10.826Z,2.83
2022-12-19T19:25:37.444Z,2.70
2022-12-19T19:28:05.335Z,2.83
2022-12-19T19:30:32.190Z,2.77
2022-12-19T19:33:07.295Z,2.90
2022-12-19T19:35:34.153Z,2.97
2022-12-19T19:38:01.211Z,2.67
2022-12-19T19:40:27.841Z,3.00
2022-12-19T19:42:54.592Z,2.97
2022-12-19T19:45:21.195Z,2.60
2022-12-19T19:47:47.790Z,2.23
2022-12-19T19:50:14.403Z,2.50
2022-12-19T19:52:41.129Z,2.80
2022-12-19T19:55:08.367Z,2.70
2022-12-19T19:57:35.564Z,2.70
2022-12-19T20:00:04.100Z,2.70
2022-12-19T20:02:30.802Z,2.97
2022-12-19T20:04:57.568Z,2.50
2022-12-19T20:07:24.163Z,3.23
2022-12-19T20:09:50.780Z,3.10
2022-12-19T20:12:17.378Z,3.10
2022-12-19T20:14:44.881Z,3.07
2022-12-19T20:17:11.666Z,2.80
2022-12-19T20:19:38.508Z,2.70
2022-12-19T20:22:05.113Z,2.83
2022-12-19T20:24:31.729Z,2.30
2022-12-19T20:26:58.743Z,5.50
2022-12-19T20:29:25.720Z,7.03
2022-12-19T20:31:52.317Z,5.67
2022-12-19T20:34:20.012Z,5.40
2022-12-19T20:36:46.630Z,4.90
2022-12-19T20:39:13.363Z,4.40
2022-12-19T20:41:39.989Z,4.20
2022-12-19T20:44:06.614Z,4.13
2022-12-19T20:46:33.286Z,4.50
2022-12-19T20:48:59.902Z,4.23
2022-12-19T20:51:26.537Z,3.87
2022-12-19T20:53:54.535Z,3.80
2022-12-19T20:56:23.266Z,3.77
2022-12-19T20:58:50.379Z,3.60
2022-12-19T21:01:19.362Z,3.47
2022-12-19T21:03:46.846Z,3.23
2022-12-19T21:06:15.733Z,3.77
2022-12-19T21:08:42.556Z,3.57
2022-12-19T21:11:09.414Z,3.17
2022-12-19T21:13:36.448Z,3.53
2022-12-19T21:16:04.336Z,3.13
2022-12-19T21:18:31.048Z,3.00
2022-12-19T21:20:58.730Z,3.90
2022-12-19T21:23:25.442Z,3.23
2022-12-19T21:25:52.578Z,3.37
2022-12-19T21:31:07.492Z,3.17
2022-12-19T21:33:34.188Z,3.10
2022-12-19T21:36:12.104Z,2.93
2022-12-19T21:38:38.694Z,3.10
2022-12-19T21:41:05.999Z,3.00
2022-12-19T21:43:33.400Z,2.93
2022-12-19T21:46:07.691Z,3.10
2022-12-19T21:48:36.418Z,2.87
2022-12-19T21:51:03.146Z,3.03
2022-12-19T21:53:29.740Z,3.60
2022-12-19T21:56:24.114Z,3.00
2022-12-19T21:58:51.820Z,3.10
2022-12-19T22:01:18.656Z,3.40
2022-12-19T22:03:45.605Z,3.03
2022-12-19T22:06:15.743Z,3.20
2022-12-19T22:08:42.371Z,3.00
2022-12-19T22:11:17.759Z,2.90
2022-12-19T22:13:44.915Z,3.37
2022-12-19T22:16:11.627Z,3.10
2022-12-19T22:18:38.835Z,3.20
2022-12-19T22:21:05.792Z,2.73
2022-12-19T22:23:32.444Z,3.07
2022-12-19T22:26:19.404Z,3.10
2022-12-19T22:28:47.257Z,2.83
2022-12-19T22:31:32.583Z,3.33
2022-12-19T22:34:03.936Z,2.70
2022-12-19T22:36:31.527Z,2.57
2022-12-19T22:38:58.889Z,2.63
2022-12-19T22:41:25.686Z,3.27
2022-12-19T22:43:52.459Z,3.20
2022-12-19T22:46:21.021Z,2.73
2022-12-19T22:48:48.323Z,3.20
2022-12-19T22:51:15.229Z,2.70
2022-12-19T22:53:41.991Z,2.30
2022-12-19T22:56:12.179Z,3.03
2022-12-19T22:58:40.260Z,3.03
2022-12-19T23:01:20.968Z,2.70
2022-12-19T23:03:48.918Z,3.07
2022-12-19T23:06:16.258Z,2.70
2022-12-19T23:08:43.013Z,2.93
2022-12-19T23:11:12.532Z,3.60
2022-12-19T23:13:39.687Z,2.70
2022-12-19T23:16:06.431Z,2.73
2022-12-19T23:18:33.105Z,3.17
2022-12-19T23:21:10.248Z,2.90
2022-12-19T23:23:42.414Z,2.67
2022-12-19T23:26:23.250Z,3.07
2022-12-19T23:28:51.855Z,3.20
2022-12-19T23:31:18.650Z,3.20
2022-12-19T23:33:45.291Z,2.80
2022-12-19T23:36:11.882Z,3.10
2022-12-19T23:38:38.560Z,2.80
2022-12-19T23:41:09.209Z,2.70
2022-12-19T23:43:36.056Z,3.13
2022-12-19T23:46:10.668Z,3.07
2022-12-19T23:48:37.363Z,2.60
2022-12-19T23:51:05.948Z,3.00
2022-12-19T23:53:32.647Z,2.73
2022-12-19T23:55:59.307Z,2.87
2022-12-19T23:58:25.934Z,2.47
